sensor_id;sensor_type;location;lat;lon;timestamp;P1;durP1;ratioP1;P2;durP2;ratioP2
68097;SDS011;54886;47.036;15.466;2022-09-29T00:00:52;8.52;;;3.80;;
68097;SDS011;54886;47.036;15.466;2022-09-29T00:03:18;8.15;;;3.47;;
68097;SDS011;54886;47.036;15.466;2022-09-29T00:05:51;6.38;;;3.60;;
68097;SDS011;54886;47.036;15.466;2022-09-29T00:08:19;6.97;;;4.00;;
68097;SDS011;54886;47.036;15.466;2022-09-29T00:10:46;6.15;;;3.75;;
68097;SDS011;54886;47.036;15.466;2022-09-29T00:13:12;10.30;;;4.43;;
68097;SDS011;54886;47.036;15.466;2022-09-29T00:15:38;6.60;;;3.70;;
68097;SDS011;54886;47.036;15.466;2022-09-29T00:18:04;6.68;;;3.88;;
68097;SDS011;54886;47.036;15.466;2022-09-29T00:20:31;6.75;;;4.10;;
68097;SDS011;54886;47.036;15.466;2022-09-29T00:22:57;7.82;;;3.90;;
68097;SDS011;54886;47.036;15.466;2022-09-29T00:25:22;9.07;;;3.72;;
68097;SDS011;54886;47.036;15.466;2022-09-29T00:27:48;6.07;;;3.75;;
68097;SDS011;54886;47.036;15.466;2022-09-29T00:30:13;6.45;;;3.95;;
68097;SDS011;54886;47.036;15.466;2022-09-29T00:32:39;8.60;;;4.35;;
68097;SDS011;54886;47.036;15.466;2022-09-29T00:35:04;8.55;;;4.20;;
68097;SDS011;54886;47.036;15.466;2022-09-29T00:37:32;8.13;;;4.90;;
68097;SDS011;54886;47.036;15.466;2022-09-29T00:39:58;7.45;;;4.18;;
68097;SDS011;54886;47.036;15.466;2022-09-29T00:42:24;9.20;;;4.03;;
68097;SDS011;54886;47.036;15.466;2022-09-29T00:45:11;9.95;;;4.50;;
68097;SDS011;54886;47.036;15.466;2022-09-29T00:47:40;8.13;;;4.30;;
68097;SDS011;54886;47.036;15.466;2022-09-29T00:50:13;11.23;;;4.50;;
68097;SDS011;54886;47.036;15.466;2022-09-29T00:53:02;9.95;;;4.80;;
68097;SDS011;54886;47.036;15.466;2022-09-29T00:55:29;8.98;;;4.60;;
68097;SDS011;54886;47.036;15.466;2022-09-29T00:58:00;7.70;;;4.35;;
68097;SDS011;54886;47.036;15.466;2022-09-29T01:00:30;10.20;;;4.75;;
68097;SDS011;54886;47.036;15.466;2022-09-29T01:02:58;8.93;;;4.97;;
68097;SDS011;54886;47.036;15.466;2022-09-29T01:05:30;7.97;;;4.30;;
68097;SDS011;54886;47.036;15.466;2022-09-29T01:08:02;10.75;;;4.70;;
68097;SDS011;54886;47.036;15.466;2022-09-29T01:10:38;8.40;;;4.38;;
68097;SDS011;54886;47.036;15.466;2022-09-29T01:13:05;6.70;;;4.10;;
68097;SDS011;54886;47.036;15.466;2022-09-29T01:15:30;10.88;;;4.45;;
68097;SDS011;54886;47.036;15.466;2022-09-29T01:17:57;8.38;;;4.78;;
68097;SDS011;54886;47.036;15.466;2022-09-29T01:20:23;9.35;;;4.65;;
68097;SDS011;54886;47.036;15.466;2022-09-29T01:28:46;8.57;;;4.38;;
68097;SDS011;54886;47.036;15.466;2022-09-29T01:39:50;10.55;;;4.20;;
68097;SDS011;54886;47.036;15.466;2022-09-29T01:42:25;7.53;;;3.55;;
68097;SDS011;54886;47.036;15.466;2022-09-29T01:44:57;6.95;;;3.45;;
68097;SDS011;54886;47.036;15.466;2022-09-29T01:47:30;5.32;;;3.42;;
68097;SDS011;54886;47.036;15.466;2022-09-29T01:50:16;6.32;;;2.85;;
68097;SDS011;54886;47.036;15.466;2022-09-29T01:52:45;6.68;;;3.30;;
68097;SDS011;54886;47.036;15.466;2022-09-29T01:55:16;5.05;;;2.85;;
68097;SDS011;54886;47.036;15.466;2022-09-29T01:57:45;4.05;;;2.63;;
68097;SDS011;54886;47.036;15.466;2022-09-29T02:00:13;2.95;;;2.20;;
68097;SDS011;54886;47.036;15.466;2022-09-29T02:02:45;5.28;;;2.17;;
68097;SDS011;54886;47.036;15.466;2022-09-29T02:05:20;3.58;;;2.13;;
68097;SDS011;54886;47.036;15.466;2022-09-29T02:07:47;3.13;;;2.20;;
68097;SDS011;54886;47.036;15.466;2022-09-29T02:10:56;2.70;;;1.88;;
68097;SDS011;54886;47.036;15.466;2022-09-29T02:13:05;2.28;;;1.75;;
68097;SDS011;54886;47.036;15.466;2022-09-29T02:15:33;5.55;;;1.83;;
68097;SDS011;54886;47.036;15.466;2022-09-29T02:18:05;3.38;;;1.83;;
68097;SDS011;54886;47.036;15.466;2022-09-29T02:20:36;3.47;;;1.77;;
68097;SDS011;54886;47.036;15.466;2022-09-29T02:23:01;2.00;;;1.75;;
68097;SDS011;54886;47.036;15.466;2022-09-29T02:25:27;1.92;;;1.67;;
68097;SDS011;54886;47.036;15.466;2022-09-29T02:27:53;1.40;;;1.30;;
68097;SDS011;54886;47.036;15.466;2022-09-29T02:30:19;1.77;;;1.67;;
68097;SDS011;54886;47.036;15.466;2022-09-29T02:32:47;1.85;;;1.40;;
68097;SDS011;54886;47.036;15.466;2022-09-29T02:35:12;1.52;;;1.45;;
68097;SDS011;54886;47.036;15.466;2022-09-29T02:37:42;7.38;;;1.88;;
68097;SDS011;54886;47.036;15.466;2022-09-29T02:52:09;2.28;;;1.30;;
68097;SDS011;54886;47.036;15.466;2022-09-29T02:58:02;1.40;;;1.20;;
68097;SDS011;54886;47.036;15.466;2022-09-29T03:00:34;1.13;;;1.10;;
68097;SDS011;54886;47.036;15.466;2022-09-29T03:03:00;1.15;;;1.15;;
68097;SDS011;54886;47.036;15.466;2022-09-29T03:05:26;1.02;;;1.02;;
68097;SDS011;54886;47.036;15.466;2022-09-29T03:07:51;2.78;;;1.20;;
68097;SDS011;54886;47.036;15.466;2022-09-29T03:10:17;0.90;;;0.90;;
68097;SDS011;54886;47.036;15.466;2022-09-29T03:12:43;1.65;;;0.82;;
68097;SDS011;54886;47.036;15.466;2022-09-29T03:15:09;1.23;;;0.90;;
68097;SDS011;54886;47.036;15.466;2022-09-29T03:17:36;1.20;;;1.10;;
68097;SDS011;54886;47.036;15.466;2022-09-29T03:20:03;1.20;;;1.10;;
68097;SDS011;54886;47.036;15.466;2022-09-29T03:22:29;1.23;;;1.13;;
68097;SDS011;54886;47.036;15.466;2022-09-29T03:24:54;1.02;;;1.02;;
68097;SDS011;54886;47.036;15.466;2022-09-29T03:27:20;1.00;;;0.90;;
68097;SDS011;54886;47.036;15.466;2022-09-29T03:29:46;1.55;;;1.20;;
68097;SDS011;54886;47.036;15.466;2022-09-29T03:32:11;2.15;;;0.98;;
68097;SDS011;54886;47.036;15.466;2022-09-29T03:34:37;1.48;;;0.95;;
68097;SDS011;54886;47.036;15.466;2022-09-29T03:37:02;1.15;;;1.05;;
68097;SDS011;54886;47.036;15.466;2022-09-29T03:39:28;9.90;;;2.70;;
68097;SDS011;54886;47.036;15.466;2022-09-29T03:41:54;2.35;;;1.10;;
68097;SDS011;54886;47.036;15.466;2022-09-29T03:44:19;0.90;;;0.90;;
68097;SDS011;54886;47.036;15.466;2022-09-29T03:46:45;0.98;;;0.98;;
68097;SDS011;54886;47.036;15.466;2022-09-29T03:49:11;0.75;;;0.75;;
68097;SDS011;54886;47.036;15.466;2022-09-29T03:51:39;0.80;;;0.80;;
68097;SDS011;54886;47.036;15.466;2022-09-29T03:54:04;1.13;;;0.93;;
68097;SDS011;54886;47.036;15.466;2022-09-29T03:56:30;0.98;;;0.95;;
68097;SDS011;54886;47.036;15.466;2022-09-29T03:58:55;1.73;;;0.90;;
68097;SDS011;54886;47.036;15.466;2022-09-29T04:01:21;1.00;;;1.00;;
68097;SDS011;54886;47.036;15.466;2022-09-29T04:03:46;0.80;;;0.80;;
68097;SDS011;54886;47.036;15.466;2022-09-29T04:06:12;1.60;;;0.98;;
68097;SDS011;54886;47.036;15.466;2022-09-29T04:08:37;1.00;;;1.00;;
68097;SDS011;54886;47.036;15.466;2022-09-29T04:11:03;1.08;;;0.98;;
68097;SDS011;54886;47.036;15.466;2022-09-29T04:13:29;1.20;;;1.10;;
68097;SDS011;54886;47.036;15.466;2022-09-29T04:15:58;0.95;;;0.95;;
68097;SDS011;54886;47.036;15.466;2022-09-29T04:18:28;0.98;;;0.98;;
68097;SDS011;54886;47.036;15.466;2022-09-29T04:20:54;2.05;;;1.00;;
68097;SDS011;54886;47.036;15.466;2022-09-29T04:23:24;0.90;;;0.80;;
68097;SDS011;54886;47.036;15.466;2022-09-29T04:25:54;1.00;;;1.00;;
68097;SDS011;54886;47.036;15.466;2022-09-29T04:28:25;0.85;;;0.85;;
68097;SDS011;54886;47.036;15.466;2022-09-29T04:30:51;0.85;;;0.85;;
68097;SDS011;54886;47.036;15.466;2022-09-29T04:33:16;1.00;;;1.00;;
68097;SDS011;54886;47.036;15.466;2022-09-29T04:35:42;0.82;;;0.82;;
68097;SDS011;54886;47.036;15.466;2022-09-29T04:38:07;2.13;;;0.98;;
68097;SDS011;54886;47.036;15.466;2022-09-29T04:40:34;0.98;;;0.90;;
68097;SDS011;54886;47.036;15.466;2022-09-29T04:43:00;1.92;;;0.88;;
68097;SDS011;54886;47.036;15.466;2022-09-29T04:45:25;1.58;;;1.00;;
68097;SDS011;54886;47.036;15.466;2022-09-29T04:47:51;1.58;;;1.00;;
68097;SDS011;54886;47.036;15.466;2022-09-29T04:50:16;0.93;;;0.82;;
68097;SDS011;54886;47.036;15.466;2022-09-29T04:52:42;2.83;;;1.10;;
68097;SDS011;54886;47.036;15.466;2022-09-29T04:55:08;1.20;;;1.10;;
68097;SDS011;54886;47.036;15.466;2022-09-29T04:57:35;1.00;;;0.88;;
68097;SDS011;54886;47.036;15.466;2022-09-29T05:00:01;1.42;;;0.70;;
68097;SDS011;54886;47.036;15.466;2022-09-29T05:02:28;0.68;;;0.68;;
68097;SDS011;54886;47.036;15.466;2022-09-29T05:04:53;1.48;;;0.95;;
68097;SDS011;54886;47.036;15.466;2022-09-29T05:07:19;1.60;;;1.20;;
68097;SDS011;54886;47.036;15.466;2022-09-29T05:09:44;0.90;;;0.90;;
68097;SDS011;54886;47.036;15.466;2022-09-29T05:12:10;1.85;;;0.98;;
68097;SDS011;54886;47.036;15.466;2022-09-29T05:14:35;1.20;;;0.90;;
68097;SDS011;54886;47.036;15.466;2022-09-29T05:17:01;1.42;;;1.10;;
68097;SDS011;54886;47.036;15.466;2022-09-29T05:19:26;1.00;;;1.00;;
68097;SDS011;54886;47.036;15.466;2022-09-29T05:21:52;1.15;;;1.10;;
68097;SDS011;54886;47.036;15.466;2022-09-29T05:24:17;1.63;;;1.08;;
68097;SDS011;54886;47.036;15.466;2022-09-29T05:26:42;1.83;;;1.00;;
68097;SDS011;54886;47.036;15.466;2022-09-29T05:29:08;2.15;;;1.45;;
68097;SDS011;54886;47.036;15.466;2022-09-29T05:31:33;1.10;;;1.00;;
68097;SDS011;54886;47.036;15.466;2022-09-29T05:33:59;1.00;;;0.90;;
68097;SDS011;54886;47.036;15.466;2022-09-29T05:36:24;1.05;;;0.98;;
68097;SDS011;54886;47.036;15.466;2022-09-29T05:38:50;4.18;;;1.23;;
68097;SDS011;54886;47.036;15.466;2022-09-29T05:41:16;1.65;;;1.02;;
68097;SDS011;54886;47.036;15.466;2022-09-29T05:43:46;2.28;;;1.20;;
68097;SDS011;54886;47.036;15.466;2022-09-29T05:46:12;1.95;;;1.10;;
68097;SDS011;54886;47.036;15.466;2022-09-29T05:48:38;4.43;;;1.70;;
68097;SDS011;54886;47.036;15.466;2022-09-29T05:51:10;1.30;;;1.20;;
68097;SDS011;54886;47.036;15.466;2022-09-29T05:53:38;2.58;;;1.50;;
68097;SDS011;54886;47.036;15.466;2022-09-29T05:56:05;1.95;;;1.20;;
68097;SDS011;54886;47.036;15.466;2022-09-29T05:58:31;2.15;;;1.20;;
68097;SDS011;54886;47.036;15.466;2022-09-29T06:00:57;1.33;;;1.23;;
68097;SDS011;54886;47.036;15.466;2022-09-29T06:03:22;4.55;;;1.30;;
68097;SDS011;54886;47.036;15.466;2022-09-29T06:05:47;1.40;;;1.30;;
68097;SDS011;54886;47.036;15.466;2022-09-29T06:08:13;1.00;;;1.00;;
68097;SDS011;54886;47.036;15.466;2022-09-29T06:10:38;1.80;;;1.02;;
68097;SDS011;54886;47.036;15.466;2022-09-29T06:13:04;2.67;;;1.35;;
68097;SDS011;54886;47.036;15.466;2022-09-29T06:15:29;1.08;;;1.02;;
68097;SDS011;54886;47.036;15.466;2022-09-29T06:17:55;1.00;;;0.88;;
68097;SDS011;54886;47.036;15.466;2022-09-29T06:20:21;1.02;;;1.02;;
68097;SDS011;54886;47.036;15.466;2022-09-29T06:22:47;1.45;;;1.17;;
68097;SDS011;54886;47.036;15.466;2022-09-29T06:25:15;1.10;;;0.98;;
68097;SDS011;54886;47.036;15.466;2022-09-29T06:27:40;1.40;;;1.02;;
68097;SDS011;54886;47.036;15.466;2022-09-29T06:30:06;2.08;;;1.23;;
68097;SDS011;54886;47.036;15.466;2022-09-29T06:32:32;2.90;;;1.40;;
68097;SDS011;54886;47.036;15.466;2022-09-29T06:34:58;1.23;;;1.13;;
68097;SDS011;54886;47.036;15.466;2022-09-29T06:37:42;1.27;;;1.25;;
68097;SDS011;54886;47.036;15.466;2022-09-29T06:40:10;1.33;;;1.23;;
68097;SDS011;54886;47.036;15.466;2022-09-29T06:42:36;1.33;;;1.23;;
68097;SDS011;54886;47.036;15.466;2022-09-29T06:45:02;1.65;;;1.38;;
68097;SDS011;54886;47.036;15.466;2022-09-29T06:47:28;2.75;;;1.20;;
68097;SDS011;54886;47.036;15.466;2022-09-29T06:49:54;3.53;;;1.63;;
68097;SDS011;54886;47.036;15.466;2022-09-29T06:52:19;2.03;;;1.70;;
68097;SDS011;54886;47.036;15.466;2022-09-29T06:54:45;1.80;;;1.52;;
68097;SDS011;54886;47.036;15.466;2022-09-29T06:57:10;4.65;;;1.70;;
68097;SDS011;54886;47.036;15.466;2022-09-29T06:59:36;3.95;;;1.83;;
68097;SDS011;54886;47.036;15.466;2022-09-29T07:02:01;3.90;;;2.00;;
68097;SDS011;54886;47.036;15.466;2022-09-29T07:04:27;5.25;;;1.70;;
68097;SDS011;54886;47.036;15.466;2022-09-29T07:06:53;1.38;;;1.27;;
68097;SDS011;54886;47.036;15.466;2022-09-29T07:09:19;2.05;;;1.15;;
68097;SDS011;54886;47.036;15.466;2022-09-29T07:11:46;1.75;;;1.17;;
68097;SDS011;54886;47.036;15.466;2022-09-29T07:14:16;1.48;;;0.90;;
68097;SDS011;54886;47.036;15.466;2022-09-29T07:16:43;1.65;;;1.10;;
68097;SDS011;54886;47.036;15.466;2022-09-29T07:19:11;1.10;;;0.90;;
68097;SDS011;54886;47.036;15.466;2022-09-29T07:21:36;1.60;;;1.00;;
68097;SDS011;54886;47.036;15.466;2022-09-29T07:24:02;0.93;;;0.93;;
68097;SDS011;54886;47.036;15.466;2022-09-29T07:26:27;1.58;;;1.10;;
68097;SDS011;54886;47.036;15.466;2022-09-29T07:28:53;1.13;;;1.10;;
68097;SDS011;54886;47.036;15.466;2022-09-29T07:31:19;1.25;;;1.20;;
68097;SDS011;54886;47.036;15.466;2022-09-29T07:33:46;1.73;;;1.13;;
68097;SDS011;54886;47.036;15.466;2022-09-29T07:36:13;1.10;;;1.10;;
68097;SDS011;54886;47.036;15.466;2022-09-29T07:38:40;1.42;;;1.25;;
68097;SDS011;54886;47.036;15.466;2022-09-29T07:41:07;1.88;;;1.30;;
68097;SDS011;54886;47.036;15.466;2022-09-29T07:43:34;1.48;;;1.33;;
68097;SDS011;54886;47.036;15.466;2022-09-29T07:46:00;2.60;;;1.40;;
68097;SDS011;54886;47.036;15.466;2022-09-29T07:48:26;1.25;;;1.10;;
68097;SDS011;54886;47.036;15.466;2022-09-29T07:50:58;1.65;;;1.50;;
68097;SDS011;54886;47.036;15.466;2022-09-29T07:53:27;1.50;;;1.20;;
68097;SDS011;54886;47.036;15.466;2022-09-29T07:55:54;1.73;;;1.40;;
68097;SDS011;54886;47.036;15.466;2022-09-29T07:58:20;2.10;;;1.30;;
68097;SDS011;54886;47.036;15.466;2022-09-29T08:00:45;1.10;;;1.10;;
68097;SDS011;54886;47.036;15.466;2022-09-29T08:03:17;1.30;;;1.20;;
68097;SDS011;54886;47.036;15.466;2022-09-29T08:05:43;1.08;;;1.05;;
68097;SDS011;54886;47.036;15.466;2022-09-29T08:08:08;0.90;;;0.90;;
68097;SDS011;54886;47.036;15.466;2022-09-29T08:10:34;1.08;;;0.95;;
68097;SDS011;54886;47.036;15.466;2022-09-29T08:12:59;1.00;;;0.90;;
68097;SDS011;54886;47.036;15.466;2022-09-29T08:15:25;0.80;;;0.80;;
68097;SDS011;54886;47.036;15.466;2022-09-29T08:17:51;2.20;;;1.10;;
68097;SDS011;54886;47.036;15.466;2022-09-29T08:20:18;1.17;;;1.10;;
68097;SDS011;54886;47.036;15.466;2022-09-29T08:22:43;1.17;;;1.00;;
68097;SDS011;54886;47.036;15.466;2022-09-29T08:25:09;1.75;;;1.15;;
68097;SDS011;54886;47.036;15.466;2022-09-29T08:27:34;1.05;;;1.02;;
68097;SDS011;54886;47.036;15.466;2022-09-29T08:29:59;0.98;;;0.90;;
68097;SDS011;54886;47.036;15.466;2022-09-29T08:32:25;2.47;;;1.05;;
68097;SDS011;54886;47.036;15.466;2022-09-29T08:34:50;0.80;;;0.80;;
68097;SDS011;54886;47.036;15.466;2022-09-29T08:37:16;0.88;;;0.85;;
68097;SDS011;54886;47.036;15.466;2022-09-29T08:39:42;0.65;;;0.65;;
68097;SDS011;54886;47.036;15.466;2022-09-29T08:44:52;1.20;;;1.10;;
68097;SDS011;54886;47.036;15.466;2022-09-29T08:49:54;3.35;;;1.10;;
68097;SDS011;54886;47.036;15.466;2022-09-29T08:52:24;1.08;;;1.00;;
68097;SDS011;54886;47.036;15.466;2022-09-29T08:54:54;0.80;;;0.80;;
68097;SDS011;54886;47.036;15.466;2022-09-29T08:57:46;0.90;;;0.90;;
68097;SDS011;54886;47.036;15.466;2022-09-29T09:00:16;0.95;;;0.95;;
68097;SDS011;54886;47.036;15.466;2022-09-29T09:05:37;0.88;;;0.88;;
68097;SDS011;54886;47.036;15.466;2022-09-29T09:08:44;0.90;;;0.90;;
68097;SDS011;54886;47.036;15.466;2022-09-29T09:17:41;1.10;;;1.10;;
68097;SDS011;54886;47.036;15.466;2022-09-29T09:22:24;2.05;;;1.20;;
68097;SDS011;54886;47.036;15.466;2022-09-29T09:25:09;1.77;;;1.13;;
68097;SDS011;54886;47.036;15.466;2022-09-29T09:27:45;1.17;;;1.00;;
68097;SDS011;54886;47.036;15.466;2022-09-29T09:30:17;1.10;;;1.10;;
68097;SDS011;54886;47.036;15.466;2022-09-29T09:32:54;1.30;;;1.20;;
68097;SDS011;54886;47.036;15.466;2022-09-29T09:38:07;1.10;;;1.10;;
68097;SDS011;54886;47.036;15.466;2022-09-29T09:40:40;1.30;;;1.20;;
68097;SDS011;54886;47.036;15.466;2022-09-29T09:43:16;1.20;;;1.15;;
68097;SDS011;54886;47.036;15.466;2022-09-29T09:45:50;1.95;;;1.30;;
68097;SDS011;54886;47.036;15.466;2022-09-29T09:48:28;1.67;;;1.30;;
68097;SDS011;54886;47.036;15.466;2022-09-29T09:51:00;1.17;;;1.13;;
68097;SDS011;54886;47.036;15.466;2022-09-29T09:53:35;1.10;;;1.10;;
68097;SDS011;54886;47.036;15.466;2022-09-29T10:01:44;1.35;;;1.30;;
68097;SDS011;54886;47.036;15.466;2022-09-29T10:04:10;1.52;;;1.42;;
68097;SDS011;54886;47.036;15.466;2022-09-29T10:06:37;1.25;;;1.25;;
68097;SDS011;54886;47.036;15.466;2022-09-29T10:09:02;1.75;;;1.60;;
68097;SDS011;54886;47.036;15.466;2022-09-29T10:11:29;1.52;;;1.42;;
68097;SDS011;54886;47.036;15.466;2022-09-29T10:14:31;2.45;;;2.00;;
68097;SDS011;54886;47.036;15.466;2022-09-29T10:16:53;2.15;;;1.80;;
68097;SDS011;54886;47.036;15.466;2022-09-29T10:20:07;1.48;;;1.38;;
68097;SDS011;54886;47.036;15.466;2022-09-29T10:22:19;1.60;;;1.47;;
68097;SDS011;54886;47.036;15.466;2022-09-29T10:24:45;1.65;;;1.48;;
68097;SDS011;54886;47.036;15.466;2022-09-29T10:27:11;1.35;;;1.25;;
68097;SDS011;54886;47.036;15.466;2022-09-29T10:29:44;1.60;;;1.50;;
68097;SDS011;54886;47.036;15.466;2022-09-29T10:34:41;2.75;;;1.50;;
68097;SDS011;54886;47.036;15.466;2022-09-29T10:37:21;1.50;;;1.40;;
68097;SDS011;54886;47.036;15.466;2022-09-29T10:40:00;2.78;;;1.27;;
68097;SDS011;54886;47.036;15.466;2022-09-29T10:42:39;2.08;;;1.40;;
68097;SDS011;54886;47.036;15.466;2022-09-29T10:45:26;1.80;;;1.70;;
68097;SDS011;54886;47.036;15.466;2022-09-29T10:50:23;1.55;;;1.45;;
68097;SDS011;54886;47.036;15.466;2022-09-29T10:52:51;1.50;;;1.40;;
68097;SDS011;54886;47.036;15.466;2022-09-29T10:55:32;1.80;;;1.67;;
68097;SDS011;54886;47.036;15.466;2022-09-29T10:58:00;2.47;;;1.40;;
68097;SDS011;54886;47.036;15.466;2022-09-29T11:00:40;1.60;;;1.50;;
68097;SDS011;54886;47.036;15.466;2022-09-29T11:03:15;3.22;;;1.70;;
68097;SDS011;54886;47.036;15.466;2022-09-29T11:08:26;1.50;;;1.40;;
68097;SDS011;54886;47.036;15.466;2022-09-29T11:11:02;2.20;;;1.73;;
68097;SDS011;54886;47.036;15.466;2022-09-29T11:13:48;1.83;;;1.70;;
68097;SDS011;54886;47.036;15.466;2022-09-29T11:16:15;3.05;;;1.60;;
68097;SDS011;54886;47.036;15.466;2022-09-29T11:18:43;1.70;;;1.60;;
68097;SDS011;54886;47.036;15.466;2022-09-29T11:21:23;3.55;;;1.70;;
68097;SDS011;54886;47.036;15.466;2022-09-29T11:24:29;2.45;;;1.75;;
68097;SDS011;54886;47.036;15.466;2022-09-29T11:38:19;2.17;;;1.77;;
68097;SDS011;54886;47.036;15.466;2022-09-29T11:44:00;1.55;;;1.45;;
68097;SDS011;54886;47.036;15.466;2022-09-29T11:49:34;2.85;;;1.58;;
68097;SDS011;54886;47.036;15.466;2022-09-29T11:52:38;1.50;;;1.40;;
68097;SDS011;54886;47.036;15.466;2022-09-29T11:58:23;1.55;;;1.30;;
68097;SDS011;54886;47.036;15.466;2022-09-29T12:11:59;1.50;;;1.40;;
68097;SDS011;54886;47.036;15.466;2022-09-29T12:17:33;1.67;;;1.40;;
68097;SDS011;54886;47.036;15.466;2022-09-29T12:20:02;2.03;;;1.30;;
68097;SDS011;54886;47.036;15.466;2022-09-29T12:22:34;1.50;;;1.40;;
68097;SDS011;54886;47.036;15.466;2022-09-29T12:25:00;2.40;;;1.30;;
68097;SDS011;54886;47.036;15.466;2022-09-29T12:27:28;1.20;;;1.20;;
68097;SDS011;54886;47.036;15.466;2022-09-29T12:38:35;2.15;;;1.30;;
68097;SDS011;54886;47.036;15.466;2022-09-29T12:43:43;1.30;;;1.20;;
68097;SDS011;54886;47.036;15.466;2022-09-29T12:51:21;2.35;;;1.50;;
68097;SDS011;54886;47.036;15.466;2022-09-29T12:53:56;2.30;;;1.52;;
68097;SDS011;54886;47.036;15.466;2022-09-29T13:15:18;3.55;;;1.80;;
68097;SDS011;54886;47.036;15.466;2022-09-29T13:26:16;2.33;;;1.70;;
68097;SDS011;54886;47.036;15.466;2022-09-29T13:28:51;2.60;;;1.80;;
68097;SDS011;54886;47.036;15.466;2022-09-29T13:31:22;2.20;;;1.60;;
68097;SDS011;54886;47.036;15.466;2022-09-29T13:33:56;3.45;;;1.90;;
68097;SDS011;54886;47.036;15.466;2022-09-29T13:36:26;3.40;;;1.80;;
68097;SDS011;54886;47.036;15.466;2022-09-29T13:38:55;3.63;;;2.10;;
68097;SDS011;54886;47.036;15.466;2022-09-29T13:51:48;5.10;;;2.08;;
68097;SDS011;54886;47.036;15.466;2022-09-29T13:57:00;2.80;;;1.90;;
68097;SDS011;54886;47.036;15.466;2022-09-29T13:59:39;2.65;;;1.90;;
68097;SDS011;54886;47.036;15.466;2022-09-29T14:05:03;3.03;;;1.90;;
68097;SDS011;54886;47.036;15.466;2022-09-29T14:07:34;2.55;;;1.92;;
68097;SDS011;54886;47.036;15.466;2022-09-29T14:10:26;3.20;;;1.88;;
68097;SDS011;54886;47.036;15.466;2022-09-29T14:12:59;3.25;;;2.05;;
68097;SDS011;54886;47.036;15.466;2022-09-29T14:15:25;3.95;;;1.90;;
68097;SDS011;54886;47.036;15.466;2022-09-29T14:17:58;4.13;;;2.15;;
68097;SDS011;54886;47.036;15.466;2022-09-29T14:20:32;3.65;;;2.25;;
68097;SDS011;54886;47.036;15.466;2022-09-29T14:23:06;3.45;;;2.30;;
68097;SDS011;54886;47.036;15.466;2022-09-29T14:28:06;3.58;;;2.20;;
68097;SDS011;54886;47.036;15.466;2022-09-29T14:33:21;4.65;;;2.55;;
68097;SDS011;54886;47.036;15.466;2022-09-29T14:36:02;4.43;;;2.80;;
68097;SDS011;54886;47.036;15.466;2022-09-29T14:38:37;5.03;;;2.78;;
68097;SDS011;54886;47.036;15.466;2022-09-29T14:41:24;4.90;;;2.67;;
68097;SDS011;54886;47.036;15.466;2022-09-29T14:43:56;4.35;;;2.53;;
68097;SDS011;54886;47.036;15.466;2022-09-29T14:49:45;4.22;;;2.70;;
68097;SDS011;54886;47.036;15.466;2022-09-29T14:55:30;5.53;;;2.50;;
68097;SDS011;54886;47.036;15.466;2022-09-29T15:03:51;3.90;;;2.40;;
68097;SDS011;54886;47.036;15.466;2022-09-29T15:06:20;3.47;;;2.40;;
68097;SDS011;54886;47.036;15.466;2022-09-29T15:08:55;3.30;;;2.35;;
68097;SDS011;54886;47.036;15.466;2022-09-29T15:11:40;4.43;;;2.28;;
68097;SDS011;54886;47.036;15.466;2022-09-29T15:14:16;3.85;;;2.40;;
68097;SDS011;54886;47.036;15.466;2022-09-29T15:19:41;6.35;;;2.50;;
68097;SDS011;54886;47.036;15.466;2022-09-29T15:22:37;4.88;;;2.65;;
68097;SDS011;54886;47.036;15.466;2022-09-29T15:30:29;5.28;;;2.90;;
68097;SDS011;54886;47.036;15.466;2022-09-29T15:33:12;8.45;;;3.45;;
68097;SDS011;54886;47.036;15.466;2022-09-29T15:35:44;6.70;;;3.83;;
68097;SDS011;54886;47.036;15.466;2022-09-29T15:38:31;6.93;;;4.00;;
68097;SDS011;54886;47.036;15.466;2022-09-29T15:41:00;7.30;;;3.63;;
68097;SDS011;54886;47.036;15.466;2022-09-29T15:43:38;6.28;;;3.33;;
68097;SDS011;54886;47.036;15.466;2022-09-29T15:46:20;6.35;;;3.30;;
68097;SDS011;54886;47.036;15.466;2022-09-29T15:51:38;4.20;;;2.92;;
68097;SDS011;54886;47.036;15.466;2022-09-29T15:54:05;6.18;;;2.80;;
68097;SDS011;54886;47.036;15.466;2022-09-29T15:56:34;4.82;;;2.50;;
68097;SDS011;54886;47.036;15.466;2022-09-29T15:59:32;5.72;;;3.10;;
68097;SDS011;54886;47.036;15.466;2022-09-29T16:02:03;4.40;;;2.90;;
68097;SDS011;54886;47.036;15.466;2022-09-29T16:04:30;5.78;;;3.03;;
68097;SDS011;54886;47.036;15.466;2022-09-29T16:06:57;6.68;;;3.30;;
68097;SDS011;54886;47.036;15.466;2022-09-29T16:09:22;6.97;;;3.30;;
68097;SDS011;54886;47.036;15.466;2022-09-29T16:11:49;5.82;;;2.78;;
68097;SDS011;54886;47.036;15.466;2022-09-29T16:16:48;6.22;;;3.55;;
68097;SDS011;54886;47.036;15.466;2022-09-29T16:19:15;5.17;;;3.30;;
68097;SDS011;54886;47.036;15.466;2022-09-29T16:21:49;5.95;;;3.47;;
68097;SDS011;54886;47.036;15.466;2022-09-29T16:24:17;6.13;;;3.60;;
68097;SDS011;54886;47.036;15.466;2022-09-29T16:26:48;8.27;;;4.57;;
68097;SDS011;54886;47.036;15.466;2022-09-29T16:31:44;8.00;;;4.78;;
68097;SDS011;54886;47.036;15.466;2022-09-29T16:39:23;6.97;;;4.65;;
68097;SDS011;54886;47.036;15.466;2022-09-29T16:41:51;7.70;;;4.20;;
68097;SDS011;54886;47.036;15.466;2022-09-29T16:44:23;6.55;;;3.83;;
68097;SDS011;54886;47.036;15.466;2022-09-29T16:49:49;9.50;;;4.80;;
68097;SDS011;54886;47.036;15.466;2022-09-29T16:55:06;8.73;;;4.85;;
68097;SDS011;54886;47.036;15.466;2022-09-29T17:00:32;9.40;;;4.80;;
68097;SDS011;54886;47.036;15.466;2022-09-29T17:02:58;9.70;;;4.80;;
68097;SDS011;54886;47.036;15.466;2022-09-29T17:05:27;8.10;;;4.45;;
68097;SDS011;54886;47.036;15.466;2022-09-29T17:08:00;7.53;;;4.65;;
68097;SDS011;54886;47.036;15.466;2022-09-29T17:10:27;7.80;;;4.93;;
68097;SDS011;54886;47.036;15.466;2022-09-29T17:12:53;11.45;;;5.35;;
68097;SDS011;54886;47.036;15.466;2022-09-29T17:15:19;8.00;;;4.47;;
68097;SDS011;54886;47.036;15.466;2022-09-29T17:17:46;10.60;;;5.07;;
68097;SDS011;54886;47.036;15.466;2022-09-29T17:20:14;8.90;;;4.70;;
68097;SDS011;54886;47.036;15.466;2022-09-29T17:22:42;7.30;;;4.63;;
68097;SDS011;54886;47.036;15.466;2022-09-29T17:25:12;8.30;;;5.28;;
68097;SDS011;54886;47.036;15.466;2022-09-29T17:27:38;7.88;;;4.88;;
68097;SDS011;54886;47.036;15.466;2022-09-29T17:30:23;9.60;;;5.25;;
68097;SDS011;54886;47.036;15.466;2022-09-29T17:32:52;11.07;;;6.57;;
68097;SDS011;54886;47.036;15.466;2022-09-29T17:35:19;12.88;;;6.68;;
68097;SDS011;54886;47.036;15.466;2022-09-29T17:37:47;9.45;;;6.30;;
68097;SDS011;54886;47.036;15.466;2022-09-29T17:42:47;9.77;;;6.00;;
68097;SDS011;54886;47.036;15.466;2022-09-29T17:45:13;10.13;;;5.28;;
68097;SDS011;54886;47.036;15.466;2022-09-29T17:47:40;13.23;;;5.63;;
68097;SDS011;54886;47.036;15.466;2022-09-29T17:52:43;8.30;;;5.07;;
68097;SDS011;54886;47.036;15.466;2022-09-29T17:55:09;7.13;;;4.47;;
68097;SDS011;54886;47.036;15.466;2022-09-29T17:57:35;8.18;;;4.43;;
68097;SDS011;54886;47.036;15.466;2022-09-29T18:00:03;8.43;;;4.65;;
68097;SDS011;54886;47.036;15.466;2022-09-29T18:02:38;7.10;;;4.47;;
68097;SDS011;54886;47.036;15.466;2022-09-29T18:05:03;8.55;;;4.63;;
68097;SDS011;54886;47.036;15.466;2022-09-29T18:07:29;10.20;;;5.15;;
68097;SDS011;54886;47.036;15.466;2022-09-29T18:09:54;8.60;;;5.55;;
68097;SDS011;54886;47.036;15.466;2022-09-29T18:12:20;9.77;;;5.75;;
68097;SDS011;54886;47.036;15.466;2022-09-29T18:14:45;10.35;;;6.30;;
68097;SDS011;54886;47.036;15.466;2022-09-29T18:17:11;8.30;;;5.75;;